Accueil
METAR-TAF:

METAR-TAF

Aéroports :

Aéroport international de Coni

Coni, Italie

latitude: 44-32-47N, longitude: 007-37-20E, altitude: 386 m

Observation

Le bulletin a été fait il y a 49 minutes, à 17:50 UTC
Vent 2 kt de direction variable
Température 21°C
Humidité 56%
Pression 1014 hPa
Visibilité 10 km ou plus
pas de nuages en-dessous de 1500 mètres et pas de cumulonimbus.

METAR: LIMZ 311750Z VRB02KT CAVOK 21/12 Q1014

Heure: 20:39 (18:39 UTC)

Prévision

Le bulletin a été fait il y a 1 heure et 39 minutes, à 17:00 UTC
Prévision valable du 31 à 18 UTC au 01 à 18 UTC
Vent 5 kt de direction variable
Visibilité: 8000 m
Nuages fragmentés à une hauteur de 4000 ft
Temporairement
du 01 à 10 UTC au 01 à 18 UTC
averses de pluie

TAF: LIMZ 311700Z 3118/0118 VRB05KT 8000 BKN040 TEMPO 0110/0118 SHRA

Observations et prévisions météorologiques de plus de 4000 aéroports (messages METAR et TAF).

Les stations disponibles sont représentées par des disques jaunes et rouges sur la carte.

Passer la souris dessus pour voir le nom de la station.

Cliquer dessus pour voir les observations et prévisions météorologiques.

Pour changer de carte: cliquez sur les boutons verts avec une croix noire pour zoomer, sur le bouton vert avec un tiret pour effectuer un zoom arrière, ou sur les flèches vertes pour les cartes adjacentes.


METAR-TAF: